Time;durP1;ratioP1;P1;durP2;ratioP2;P2;SDS_P1;SDS_P2;PMS_P1;PMS_P2;Temp;Humidity;BMP_temperature;BMP_pressure;BME280_temperature;BME280_humidity;BME280_pressure;Samples;Min_cycle;Max_cycle;Signal;HPM_P1;HPM_P2
2020/12/03 00:01:24;;;;;;;25.77;3.77;;;21.90;72.40;;;;;;5073122;28;20198;-78
2020/12/03 00:04:06;;;;;;;20.93;3.50;;;21.80;73.30;;;;;;5073005;28;20266;-81
2020/12/03 00:07:01;;;;;;;23.87;3.90;;;21.70;74.10;;;;;;5072049;28;20229;-79
2020/12/03 00:09:28;;;;;;;17.33;3.30;;;21.60;74.50;;;;;;5051154;28;20188;-78
2020/12/03 00:11:59;;;;;;;17.17;3.93;;;21.60;75.10;;;;;;5058605;28;20574;-79
2020/12/03 00:14:27;;;;;;;16.73;3.27;;;21.60;75.20;;;;;;5053124;28;20176;-81
2020/12/03 00:16:54;;;;;;;23.43;3.60;;;21.60;75.10;;;;;;5062432;28;20262;-76
2020/12/03 00:19:25;;;;;;;21.73;4.03;;;21.80;74.60;;;;;;5072466;28;20167;-78
2020/12/03 00:21:59;;;;;;;16.03;3.40;;;21.90;74.70;;;;;;5070580;28;20298;-77
2020/12/03 00:24:32;;;;;;;17.23;3.07;;;22.00;74.60;;;;;;5070532;28;20246;-79
2020/12/03 00:27:10;;;;;;;24.40;4.10;;;22.10;74.20;;;;;;5071637;28;20316;-79
2020/12/03 00:29:38;;;;;;;20.87;3.83;;;22.20;74.70;;;;;;5071009;28;20262;-78
2020/12/03 00:32:06;;;;;;;13.57;3.43;;;22.40;74.40;;;;;;5072066;28;20244;-80
2020/12/03 00:34:34;;;;;;;18.20;3.10;;;22.50;73.70;;;;;;5070030;28;20171;-80
2020/12/03 00:37:01;;;;;;;18.43;3.20;;;22.30;73.80;;;;;;5068509;28;20281;-80
2020/12/03 00:39:29;;;;;;;15.53;3.47;;;22.20;74.60;;;;;;5090314;28;20187;-80
2020/12/03 00:41:56;;;;;;;19.47;3.23;;;22.10;75.30;;;;;;5069547;28;20640;-81
2020/12/03 00:44:24;;;;;;;22.13;2.90;;;21.90;75.00;;;;;;5071763;28;20262;-79
2020/12/03 00:46:52;;;;;;;20.93;2.80;;;21.80;76.50;;;;;;5073681;28;20286;-81
2020/12/03 00:49:20;;;;;;;15.60;3.20;;;21.60;77.00;;;;;;5072306;28;20195;-79
2020/12/03 00:51:54;;;;;;;18.07;3.20;;;21.60;77.40;;;;;;5066270;28;20603;-81
2020/12/03 00:54:21;;;;;;;18.20;3.40;;;21.60;77.10;;;;;;5070639;28;20215;-78
2020/12/03 00:56:49;;;;;;;16.27;3.37;;;21.60;76.50;;;;;;5066892;28;20261;-82
2020/12/03 00:59:17;;;;;;;19.93;3.93;;;21.60;76.50;;;;;;5071030;28;20604;-79
2020/12/03 01:01:44;;;;;;;21.00;3.73;;;21.80;76.10;;;;;;5070776;28;20543;-81
2020/12/03 01:04:11;;;;;;;18.30;3.50;;;21.90;75.90;;;;;;5069413;28;20240;-80
2020/12/03 01:06:39;;;;;;;18.57;3.20;;;21.90;75.60;;;;;;5070509;28;20215;-82
2020/12/03 01:09:06;;;;;;;21.00;3.70;;;21.90;76.00;;;;;;5070868;28;20313;-80
2020/12/03 01:11:34;;;;;;;16.43;3.70;;;21.90;75.60;;;;;;5063053;28;20659;-81
2020/12/03 01:14:04;;;;;;;20.57;4.37;;;21.80;75.60;;;;;;5060576;28;20263;-78
2020/12/03 01:16:31;;;;;;;20.53;3.97;;;21.80;75.30;;;;;;5073211;28;20187;-79
2020/12/03 01:18:58;;;;;;;17.07;3.83;;;21.90;74.60;;;;;;5072159;28;20207;-82
2020/12/03 01:21:26;;;;;;;10.53;2.47;;;22.00;74.10;;;;;;5069305;28;20194;-80
2020/12/03 01:23:56;;;;;;;12.10;1.97;;;21.80;74.70;;;;;;5074535;28;20235;-80
2020/12/03 01:26:24;;;;;;;14.97;2.40;;;21.80;74.20;;;;;;5073559;28;20207;-79
2020/12/03 01:28:51;;;;;;;10.83;2.63;;;21.70;74.50;;;;;;5075557;28;20187;-84
2020/12/03 01:31:18;;;;;;;8.80;2.10;;;21.80;73.90;;;;;;5068100;28;20191;-80
2020/12/03 01:33:46;;;;;;;14.70;2.60;;;22.10;73.80;;;;;;5072090;28;20281;-81
2020/12/03 01:36:14;;;;;;;8.23;2.43;;;22.20;71.80;;;;;;5073817;28;20184;-81
2020/12/03 01:38:45;;;;;;;20.57;2.50;;;22.20;71.90;;;;;;5069378;28;20175;-79
2020/12/03 01:41:12;;;;;;;7.80;2.13;;;22.40;71.40;;;;;;5073462;28;20282;-80
2020/12/03 01:43:44;;;;;;;8.57;1.93;;;22.40;71.50;;;;;;5069710;28;20183;-82
2020/12/03 01:46:11;;;;;;;13.30;1.97;;;22.30;71.80;;;;;;5073235;28;20253;-79
2020/12/03 01:48:52;;;;;;;12.57;2.60;;;22.20;72.70;;;;;;5074535;28;20672;-81
2020/12/03 01:51:48;;;;;;;14.80;2.57;;;22.20;73.10;;;;;;5070274;28;20207;-80
2020/12/03 01:54:22;;;;;;;13.70;2.40;;;22.10;73.90;;;;;;5070929;28;20689;-80
2020/12/03 01:57:36;;;;;;;15.50;3.33;;;22.10;73.90;;;;;;5072360;28;20191;-80
2020/12/03 02:00:07;;;;;;;16.93;3.20;;;22.20;73.90;;;;;;5070837;28;20557;-80
2020/12/03 02:02:34;;;;;;;15.43;3.13;;;22.20;73.40;;;;;;5065792;28;20190;-80
2020/12/03 02:05:16;;;;;;;10.40;2.83;;;22.20;74.00;;;;;;5074037;28;20175;-79
2020/12/03 02:07:44;;;;;;;24.60;3.73;;;22.20;73.80;;;;;;5070454;28;20223;-82
2020/12/03 02:10:13;;;;;;;13.53;2.93;;;22.20;73.70;;;;;;5069067;28;20187;-80
2020/12/03 02:12:44;;;;;;;17.70;3.87;;;22.20;74.20;;;;;;5065976;28;20267;-81
2020/12/03 02:15:12;;;;;;;18.67;4.60;;;22.20;74.00;;;;;;5071703;28;20217;-81
2020/12/03 02:17:41;;;;;;;14.70;3.73;;;22.20;74.40;;;;;;5066729;28;20183;-81
2020/12/03 02:20:14;;;;;;;16.13;3.23;;;22.20;74.10;;;;;;5069763;28;20350;-81
2020/12/03 02:22:42;;;;;;;21.50;4.13;;;22.10;74.60;;;;;;5071888;28;20680;-80
2020/12/03 02:25:10;;;;;;;16.30;4.03;;;22.10;75.00;;;;;;5067247;28;20230;-80
2020/12/03 02:27:39;;;;;;;17.93;3.73;;;22.10;74.80;;;;;;5060215;28;20204;-80
2020/12/03 02:30:11;;;;;;;16.00;3.97;;;22.20;74.80;;;;;;5065021;28;20187;-83
2020/12/03 02:32:39;;;;;;;18.50;4.27;;;22.10;74.10;;;;;;5067185;28;20186;-82
2020/12/03 02:35:09;;;;;;;20.90;3.73;;;22.10;74.40;;;;;;5068037;28;20203;-81
2020/12/03 02:37:37;;;;;;;28.73;4.27;;;21.90;74.50;;;;;;5074906;28;20247;-83
2020/12/03 02:40:07;;;;;;;19.70;3.37;;;21.90;74.70;;;;;;5074560;28;20186;-81
2020/12/03 02:42:34;;;;;;;17.90;3.53;;;21.90;74.90;;;;;;5060395;28;20172;-79
2020/12/03 02:45:01;;;;;;;15.90;3.33;;;21.90;75.00;;;;;;5073934;28;20175;-84
2020/12/03 02:47:29;;;;;;;29.33;3.90;;;21.80;75.20;;;;;;5073336;28;20246;-80
2020/12/03 02:49:59;;;;;;;21.33;3.90;;;21.80;75.50;;;;;;5073192;28;20649;-80
2020/12/03 02:52:27;;;;;;;21.13;3.93;;;21.80;75.60;;;;;;5071300;28;20891;-81
2020/12/03 02:54:55;;;;;;;16.27;3.93;;;21.90;75.70;;;;;;5065673;28;20171;-81
2020/12/03 02:57:23;;;;;;;23.90;3.57;;;22.00;75.70;;;;;;5054350;28;20187;-81
2020/12/03 02:59:50;;;;;;;25.37;3.93;;;22.20;75.40;;;;;;5073682;28;20579;-82
2020/12/03 03:02:18;;;;;;;21.30;3.47;;;22.20;74.90;;;;;;5073438;28;20698;-79
2020/12/03 03:04:45;;;;;;;21.40;3.70;;;22.30;74.70;;;;;;5073780;28;20182;-80
2020/12/03 03:07:12;;;;;;;21.10;3.63;;;22.60;74.20;;;;;;5084122;28;20206;-82
2020/12/03 03:09:40;;;;;;;18.53;3.93;;;22.70;73.70;;;;;;5076414;28;20202;-82
2020/12/03 03:12:07;;;;;;;19.07;3.53;;;22.60;74.10;;;;;;5074649;28;20254;-82
2020/12/03 03:14:35;;;;;;;20.80;3.93;;;22.50;74.50;;;;;;5083747;28;20179;-81
2020/12/03 03:17:02;;;;;;;25.47;4.30;;;22.40;74.80;;;;;;5092738;28;20261;-81
2020/12/03 03:19:30;;;;;;;20.67;3.70;;;22.40;75.40;;;;;;5093016;28;20646;-80
2020/12/03 03:21:57;;;;;;;24.17;4.43;;;22.30;75.50;;;;;;5085144;28;20193;-81
2020/12/03 03:24:24;;;;;;;28.70;4.30;;;22.20;76.00;;;;;;5074004;28;20222;-81
2020/12/03 03:26:52;;;;;;;24.43;3.47;;;22.20;76.60;;;;;;5075001;28;20207;-80
2020/12/03 03:29:19;;;;;;;24.13;3.77;;;22.20;77.10;;;;;;5074023;28;20590;-79
2020/12/03 03:31:47;;;;;;;26.13;4.07;;;22.00;78.20;;;;;;5072438;28;20179;-80
2020/12/03 03:34:14;;;;;;;21.60;3.30;;;21.90;78.50;;;;;;5073564;28;20171;-82
2020/12/03 03:36:42;;;;;;;22.07;4.00;;;21.70;79.40;;;;;;5070395;28;20179;-78
2020/12/03 03:39:12;;;;;;;15.10;3.17;;;21.50;80.10;;;;;;5058679;28;20183;-84
2020/12/03 03:41:39;;;;;;;20.83;2.97;;;21.50;80.90;;;;;;5069834;28;20198;-82
2020/12/03 03:44:07;;;;;;;20.87;3.17;;;21.50;81.10;;;;;;5054361;28;20172;-81
2020/12/03 03:46:34;;;;;;;18.23;3.90;;;21.50;81.20;;;;;;5054036;28;20204;-82
2020/12/03 03:49:02;;;;;;;25.53;3.73;;;21.40;81.80;;;;;;5059635;28;20175;-81
2020/12/03 03:51:29;;;;;;;21.53;4.10;;;21.40;81.10;;;;;;5073473;28;20582;-82
2020/12/03 03:53:57;;;;;;;19.23;3.70;;;21.40;80.60;;;;;;5067012;28;20176;-82
2020/12/03 03:56:24;;;;;;;26.70;4.33;;;21.50;80.30;;;;;;5068987;28;20190;-81
2020/12/03 03:58:52;;;;;;;20.83;3.90;;;21.50;80.00;;;;;;5073320;28;20663;-82
2020/12/03 04:01:19;;;;;;;29.43;5.33;;;21.60;79.60;;;;;;5071610;28;20256;-79
2020/12/03 04:03:47;;;;;;;27.00;4.80;;;21.60;79.10;;;;;;5067331;28;20228;-80
2020/12/03 04:06:14;;;;;;;19.83;4.10;;;21.60;79.20;;;;;;5068491;28;20293;-82
2020/12/03 04:08:41;;;;;;;19.93;4.10;;;21.60;79.30;;;;;;5072379;28;20191;-81
2020/12/03 04:11:09;;;;;;;27.67;4.30;;;21.60;79.20;;;;;;5068131;28;20252;-80
2020/12/03 04:13:36;;;;;;;19.77;3.63;;;21.60;79.60;;;;;;5068159;28;20710;-81
2020/12/03 04:16:04;;;;;;;23.97;4.00;;;21.50;80.10;;;;;;5071803;28;20195;-82
2020/12/03 04:18:31;;;;;;;24.83;4.73;;;21.40;80.30;;;;;;5068949;28;20197;-82
2020/12/03 04:21:00;;;;;;;18.30;3.93;;;21.40;80.70;;;;;;5069216;28;20182;-81
2020/12/03 04:23:27;;;;;;;18.60;3.83;;;21.40;80.90;;;;;;5072041;28;20632;-80
2020/12/03 04:25:55;;;;;;;19.17;4.30;;;21.40;81.10;;;;;;5070902;28;20197;-81
2020/12/03 04:28:22;;;;;;;25.93;4.20;;;21.40;81.30;;;;;;5070133;28;20213;-79
2020/12/03 04:30:50;;;;;;;25.53;3.77;;;21.40;81.20;;;;;;5072270;28;20652;-79
2020/12/03 04:33:17;;;;;;;15.60;3.90;;;21.40;81.40;;;;;;5068323;28;20179;-81
2020/12/03 04:35:45;;;;;;;19.37;4.17;;;21.40;81.40;;;;;;5071462;28;20210;-79
2020/12/03 04:38:12;;;;;;;18.50;3.43;;;21.40;81.40;;;;;;5068787;28;20252;-80
2020/12/03 04:40:43;;;;;;;22.40;3.37;;;21.40;81.50;;;;;;5068535;28;20176;-78
2020/12/03 04:43:38;;;;;;;25.20;4.10;;;21.30;81.40;;;;;;5069092;28;20204;-80
2020/12/03 04:46:31;;;;;;;28.13;4.50;;;21.40;81.50;;;;;;5063535;28;20204;-84
2020/12/03 04:49:28;;;;;;;19.70;4.07;;;21.40;81.10;;;;;;5061108;28;20525;-82
2020/12/03 04:52:35;;;;;;;32.10;4.57;;;21.40;81.30;;;;;;5068966;28;20211;-83
2020/12/03 04:55:18;;;;;;;30.53;4.57;;;21.30;81.40;;;;;;5062629;28;20187;-81
2020/12/03 04:58:15;;;;;;;22.43;4.03;;;21.30;81.50;;;;;;5060693;28;20195;-85
2020/12/03 05:00:54;;;;;;;22.73;4.87;;;21.20;81.40;;;;;;5062407;28;20676;-83
2020/12/03 05:03:59;;;;;;;19.53;3.97;;;21.10;81.50;;;;;;5069239;28;20200;-80
2020/12/03 05:06:39;;;;;;;20.53;4.40;;;21.10;81.90;;;;;;5078287;28;20210;-81
2020/12/03 05:09:32;;;;;;;26.37;4.20;;;21.20;81.50;;;;;;5076780;28;20695;-85
2020/12/03 05:12:23;;;;;;;34.67;4.13;;;21.20;81.40;;;;;;5075642;28;20171;-83
2020/12/03 05:15:05;;;;;;;28.00;4.10;;;21.20;81.70;;;;;;5073751;28;20206;-82
2020/12/03 05:18:00;;;;;;;31.57;5.03;;;21.20;81.70;;;;;;5066674;28;20854;-81
2020/12/03 05:20:36;;;;;;;21.23;4.50;;;21.10;82.30;;;;;;5072843;28;20190;-79
2020/12/03 05:23:14;;;;;;;22.33;4.67;;;21.10;82.70;;;;;;5062719;28;20179;-80
2020/12/03 05:25:42;;;;;;;27.03;4.77;;;21.10;82.60;;;;;;5066720;28;20551;-79
2020/12/03 05:28:22;;;;;;;28.50;4.47;;;21.10;82.60;;;;;;5071482;28;20262;-82
2020/12/03 05:30:51;;;;;;;22.10;4.70;;;21.20;82.60;;;;;;5057297;28;20184;-79
2020/12/03 05:33:18;;;;;;;22.60;4.60;;;21.10;82.70;;;;;;5071344;28;20190;-79
2020/12/03 05:35:46;;;;;;;25.00;4.83;;;21.20;82.30;;;;;;5072574;28;20722;-84
2020/12/03 05:38:21;;;;;;;25.37;4.43;;;21.30;81.80;;;;;;5072466;28;20171;-79
2020/12/03 05:41:03;;;;;;;20.57;3.57;;;21.20;81.50;;;;;;5072859;28;20185;-82
2020/12/03 05:43:32;;;;;;;18.30;3.83;;;21.30;81.60;;;;;;5071264;28;20187;-80
2020/12/03 05:46:02;;;;;;;24.70;4.83;;;21.40;81.70;;;;;;5070418;28;20620;-77
2020/12/03 05:48:29;;;;;;;29.03;5.53;;;21.40;81.80;;;;;;5068547;28;20273;-79
2020/12/03 05:50:56;;;;;;;29.33;5.23;;;21.40;82.10;;;;;;5070527;28;20630;-78
2020/12/03 05:53:26;;;;;;;24.77;4.33;;;21.50;81.50;;;;;;5066012;28;20284;-79
2020/12/03 05:56:12;;;;;;;23.23;3.43;;;21.60;80.70;;;;;;5070932;28;20254;-80
2020/12/03 05:58:40;;;;;;;21.00;4.03;;;21.70;80.30;;;;;;5080644;28;20532;-80
2020/12/03 06:01:20;;;;;;;22.73;3.80;;;21.70;79.80;;;;;;5060327;28;20184;-81
2020/12/03 06:04:06;;;;;;;21.13;4.20;;;21.70;79.90;;;;;;5073539;28;20198;-81
2020/12/03 06:07:26;;;;;;;25.07;4.90;;;21.70;79.70;;;;;;5074806;28;20213;-80
2020/12/03 06:10:02;;;;;;;24.70;4.27;;;21.60;80.20;;;;;;5030100;28;20177;-79
2020/12/03 06:12:45;;;;;;;24.87;4.63;;;21.60;80.60;;;;;;5054225;28;20552;-83
2020/12/03 06:15:42;;;;;;;25.60;3.73;;;21.60;80.50;;;;;;5074068;28;20214;-79
2020/12/03 06:18:38;;;;;;;20.97;4.57;;;21.60;80.60;;;;;;5069753;28;20634;-81
2020/12/03 06:21:38;;;;;;;23.77;3.83;;;21.50;80.80;;;;;;5060380;28;20196;-81
2020/12/03 06:24:27;;;;;;;25.20;5.03;;;21.40;81.40;;;;;;5050292;28;20227;-81
2020/12/03 06:27:10;;;;;;;26.80;4.63;;;21.40;81.80;;;;;;5068107;28;20252;-82
2020/12/03 06:30:13;;;;;;;24.37;4.17;;;21.40;81.60;;;;;;5068754;28;20184;-83
2020/12/03 06:32:43;;;;;;;17.07;3.93;;;21.40;81.70;;;;;;5073746;28;20264;-79
2020/12/03 06:35:18;;;;;;;18.43;4.27;;;21.40;80.90;;;;;;5070726;28;20278;-83
2020/12/03 06:38:02;;;;;;;23.90;4.57;;;21.30;80.90;;;;;;5061415;28;20187;-80
2020/12/03 06:40:37;;;;;;;29.87;3.97;;;21.40;81.00;;;;;;5068627;28;20198;-80
2020/12/03 06:43:22;;;;;;;27.70;4.30;;;21.50;80.90;;;;;;5069221;28;20210;-81
2020/12/03 06:46:06;;;;;;;25.10;4.77;;;21.40;80.70;;;;;;5069497;28;20665;-81
2020/12/03 06:48:44;;;;;;;20.87;3.80;;;21.40;80.40;;;;;;5070180;28;20333;-85
2020/12/03 06:51:32;;;;;;;18.83;4.40;;;21.40;80.30;;;;;;5069925;28;20189;-78
2020/12/03 06:54:28;;;;;;;15.50;3.83;;;21.40;80.10;;;;;;5068784;28;20276;-79
2020/12/03 06:57:16;;;;;;;22.63;4.90;;;21.30;80.00;;;;;;5070266;28;20727;-80
2020/12/03 06:59:46;;;;;;;27.33;4.83;;;21.30;80.10;;;;;;5073407;28;20187;-79
2020/12/03 07:02:47;;;;;;;23.33;4.00;;;21.40;80.20;;;;;;5074304;28;20180;-81
2020/12/03 07:05:45;;;;;;;30.53;4.30;;;21.40;80.30;;;;;;5074828;28;20176;-81
2020/12/03 07:08:42;;;;;;;30.93;4.50;;;21.40;80.50;;;;;;5080130;28;20638;-79
2020/12/03 07:11:24;;;;;;;23.10;4.70;;;21.40;80.70;;;;;;5074319;28;20174;-79
2020/12/03 07:14:09;;;;;;;24.47;5.07;;;21.40;80.80;;;;;;5074323;28;20172;-78
2020/12/03 07:17:13;;;;;;;20.67;5.80;;;21.40;80.70;;;;;;5073800;28;20194;-81
2020/12/03 07:20:33;;;;;;;24.97;4.33;;;21.40;81.10;;;;;;5073930;28;20210;-84
2020/12/03 07:23:30;;;;;;;25.47;4.70;;;21.30;81.10;;;;;;5069379;28;20195;-80
2020/12/03 07:26:00;;;;;;;20.47;3.73;;;21.30;81.30;;;;;;5071269;28;20206;-79
2020/12/03 07:28:37;;;;;;;23.43;3.63;;;21.30;81.40;;;;;;5073821;28;20182;-81
2020/12/03 07:31:17;;;;;;;26.33;4.37;;;21.30;81.20;;;;;;5074167;28;20167;-80
2020/12/03 07:33:58;;;;;;;31.77;5.30;;;21.30;81.30;;;;;;5073696;28;20257;-79
2020/12/03 07:36:44;;;;;;;25.73;5.10;;;21.30;81.40;;;;;;5073691;28;20179;-80
2020/12/03 07:39:16;;;;;;;22.97;4.63;;;21.30;81.30;;;;;;5073899;28;20273;-78
2020/12/03 07:41:59;;;;;;;32.07;5.30;;;21.30;81.50;;;;;;5073410;28;20167;-78
2020/12/03 07:44:42;;;;;;;30.23;5.33;;;21.30;81.50;;;;;;5074187;28;20262;-80
2020/12/03 07:47:21;;;;;;;30.20;4.43;;;21.30;81.30;;;;;;5072902;28;20206;-80
2020/12/03 07:49:54;;;;;;;23.43;4.60;;;21.30;81.50;;;;;;5072563;28;20179;-79
2020/12/03 07:52:28;;;;;;;23.23;4.47;;;21.30;81.80;;;;;;5073621;28;20179;-80
2020/12/03 07:55:16;;;;;;;34.33;5.57;;;21.30;81.80;;;;;;5072715;28;20721;-80
2020/12/03 07:57:47;;;;;;;24.07;4.73;;;21.30;81.70;;;;;;5069250;28;20274;-80
2020/12/03 08:00:36;;;;;;;25.83;4.33;;;21.30;81.90;;;;;;5073645;28;20633;-80
2020/12/03 08:03:04;;;;;;;23.83;4.27;;;21.30;81.80;;;;;;5071919;28;20187;-80
2020/12/03 08:05:40;;;;;;;25.60;4.73;;;21.30;81.80;;;;;;5076560;28;20262;-80
2020/12/03 08:08:29;;;;;;;22.27;4.67;;;21.40;81.80;;;;;;5073329;28;20214;-80
2020/12/03 08:10:56;;;;;;;25.90;4.43;;;21.40;82.00;;;;;;5053594;28;20179;-83
2020/12/03 08:13:42;;;;;;;28.70;4.27;;;21.30;82.10;;;;;;5053829;28;20211;-79
2020/12/03 08:16:49;;;;;;;25.37;4.97;;;21.30;82.40;;;;;;5064520;28;20183;-80
2020/12/03 08:19:16;;;;;;;34.57;4.80;;;21.30;82.60;;;;;;5059162;28;20179;-78
2020/12/03 08:21:44;;;;;;;27.37;4.80;;;21.30;82.70;;;;;;5072329;28;20175;-80
2020/12/03 08:24:25;;;;;;;32.90;5.27;;;21.30;82.90;;;;;;5072464;28;20619;-80
2020/12/03 08:26:59;;;;;;;22.43;4.30;;;21.20;83.10;;;;;;5065675;28;20218;-80
2020/12/03 08:29:39;;;;;;;24.07;4.40;;;21.20;83.30;;;;;;5073007;28;20181;-81
2020/12/03 08:32:06;;;;;;;20.13;4.17;;;21.20;83.50;;;;;;5071763;28;20203;-80
2020/12/03 08:34:38;;;;;;;24.17;4.30;;;21.20;83.70;;;;;;5071929;28;20179;-80
2020/12/03 08:37:14;;;;;;;25.00;4.53;;;21.20;83.80;;;;;;5071827;28;20188;-79
2020/12/03 08:39:45;;;;;;;23.40;4.90;;;21.20;83.80;;;;;;5072809;28;20258;-79
2020/12/03 08:42:13;;;;;;;32.60;5.23;;;21.20;83.80;;;;;;5068412;28;20172;-80
2020/12/03 08:44:42;;;;;;;31.93;4.33;;;21.20;83.90;;;;;;5061276;28;20182;-77
2020/12/03 08:47:25;;;;;;;33.97;5.77;;;21.10;84.00;;;;;;5071741;28;20575;-77
2020/12/03 08:49:53;;;;;;;33.10;4.87;;;21.20;84.30;;;;;;5072576;28;20182;-80
2020/12/03 08:52:22;;;;;;;28.67;5.13;;;21.20;84.40;;;;;;5071225;28;20195;-81
2020/12/03 08:54:49;;;;;;;27.77;5.33;;;21.20;84.60;;;;;;5071230;28;20183;-81
2020/12/03 08:57:21;;;;;;;27.83;4.30;;;21.20;84.60;;;;;;5070807;28;20191;-81
2020/12/03 08:59:59;;;;;;;30.10;4.43;;;21.20;84.90;;;;;;5071845;28;20182;-79
2020/12/03 09:02:30;;;;;;;25.43;5.07;;;21.10;85.10;;;;;;5057545;28;20167;-87
2020/12/03 09:04:58;;;;;;;26.33;4.83;;;21.10;85.20;;;;;;5074299;28;20163;-79
2020/12/03 09:07:32;;;;;;;36.87;5.07;;;21.10;85.60;;;;;;5072731;28;20199;-78
2020/12/03 09:10:02;;;;;;;36.13;4.90;;;21.00;85.90;;;;;;5072158;28;20175;-79
2020/12/03 09:12:33;;;;;;;34.03;5.93;;;21.00;86.10;;;;;;5072555;28;20257;-81
2020/12/03 09:15:03;;;;;;;33.13;5.37;;;21.00;86.30;;;;;;5072703;28;20175;-81
2020/12/03 09:17:40;;;;;;;23.20;4.20;;;21.00;86.80;;;;;;5073049;28;20170;-85
2020/12/03 09:20:09;;;;;;;30.47;5.43;;;20.90;87.20;;;;;;5062627;28;20218;-81
2020/12/03 09:22:39;;;;;;;33.10;4.83;;;20.90;87.60;;;;;;5072098;28;20261;-77
2020/12/03 09:25:08;;;;;;;30.73;4.97;;;20.90;87.60;;;;;;5071359;28;20694;-81
2020/12/03 09:27:47;;;;;;;31.10;4.70;;;20.90;88.40;;;;;;5071644;28;20203;-79
2020/12/03 09:30:24;;;;;;;38.50;5.47;;;20.90;88.10;;;;;;5072378;28;20168;-78
2020/12/03 09:33:04;;;;;;;19.83;4.70;;;20.90;88.20;;;;;;5075673;28;20179;-77
2020/12/03 09:35:33;;;;;;;33.53;5.20;;;20.90;88.30;;;;;;5074991;28;20199;-79
2020/12/03 09:38:02;;;;;;;28.37;4.80;;;20.90;88.40;;;;;;5075905;28;20260;-81
2020/12/03 09:40:33;;;;;;;24.73;4.30;;;20.90;88.80;;;;;;5075979;28;20179;-79
2020/12/03 09:43:01;;;;;;;36.57;4.57;;;20.80;89.00;;;;;;5075990;28;20175;-80
2020/12/03 09:45:35;;;;;;;29.73;6.37;;;20.90;89.00;;;;;;5075308;28;20265;-79
2020/12/03 09:48:03;;;;;;;28.23;5.27;;;20.90;89.00;;;;;;5075466;28;20569;-78
2020/12/03 09:50:31;;;;;;;28.27;5.67;;;20.90;89.30;;;;;;5075413;28;20179;-78
2020/12/03 09:53:01;;;;;;;40.80;5.70;;;20.80;89.70;;;;;;5075990;28;20241;-79
2020/12/03 09:55:28;;;;;;;31.47;4.23;;;20.80;90.00;;;;;;5075773;28;20683;-82
2020/12/03 09:57:58;;;;;;;22.40;4.53;;;20.70;90.10;;;;;;5075309;28;20179;-79
2020/12/03 10:00:38;;;;;;;21.50;4.40;;;20.70;90.40;;;;;;5076136;28;20179;-82
2020/12/03 10:03:15;;;;;;;29.33;4.57;;;20.70;90.50;;;;;;5072697;28;20183;-80
2020/12/03 10:05:52;;;;;;;36.43;4.97;;;20.70;90.70;;;;;;5075110;28;20176;-80
2020/12/03 10:08:55;;;;;;;29.90;4.60;;;20.70;90.70;;;;;;5075392;28;20190;-79
2020/12/03 10:12:00;;;;;;;26.57;4.77;;;20.60;90.80;;;;;;5063351;28;20175;-78
2020/12/03 10:14:49;;;;;;;26.40;4.17;;;20.60;91.00;;;;;;5074060;28;20175;-78
2020/12/03 10:17:18;;;;;;;27.13;5.13;;;20.60;91.00;;;;;;5074898;28;20199;-79
2020/12/03 10:19:47;;;;;;;26.43;5.67;;;20.60;91.00;;;;;;5075325;28;20184;-81
2020/12/03 10:22:18;;;;;;;38.93;5.40;;;20.60;91.10;;;;;;5070603;28;20176;-82
2020/12/03 10:24:52;;;;;;;33.30;4.73;;;20.60;91.10;;;;;;5054394;28;20224;-79
2020/12/03 10:27:30;;;;;;;29.67;5.37;;;20.50;91.20;;;;;;5072130;28;20202;-79
2020/12/03 10:30:07;;;;;;;29.57;5.17;;;20.60;91.30;;;;;;5073854;28;20590;-79
2020/12/03 10:32:43;;;;;;;28.37;5.30;;;20.50;91.30;;;;;;5075045;28;20206;-78
2020/12/03 10:35:11;;;;;;;21.70;4.90;;;20.50;91.30;;;;;;5075227;28;20179;-78
2020/12/03 10:37:51;;;;;;;27.10;4.57;;;20.60;91.30;;;;;;5074721;28;20725;-78
2020/12/03 10:40:20;;;;;;;24.13;5.07;;;20.50;91.30;;;;;;5075426;28;20251;-79
2020/12/03 10:43:11;;;;;;;32.03;5.10;;;20.50;91.40;;;;;;5073608;28;20262;-79
2020/12/03 10:45:47;;;;;;;26.50;6.00;;;20.50;91.40;;;;;;5075222;28;20171;-79
2020/12/03 10:48:31;;;;;;;35.07;4.93;;;20.60;91.50;;;;;;5080903;28;20264;-79
2020/12/03 10:51:03;;;;;;;31.47;5.23;;;20.50;91.50;;;;;;5075416;28;20203;-79
2020/12/03 10:53:32;;;;;;;39.70;5.90;;;20.50;91.80;;;;;;5073441;28;20214;-80
2020/12/03 10:56:12;;;;;;;33.73;5.87;;;20.50;91.50;;;;;;5068556;28;20541;-81
2020/12/03 10:59:02;;;;;;;37.57;4.50;;;20.50;91.50;;;;;;5059727;28;20210;-80
2020/12/03 11:01:32;;;;;;;34.07;5.53;;;20.50;91.50;;;;;;5059670;28;20251;-80
2020/12/03 11:04:11;;;;;;;35.93;4.70;;;20.60;91.50;;;;;;5068748;28;20183;-80
2020/12/03 11:06:38;;;;;;;27.17;6.00;;;20.50;91.50;;;;;;5071592;28;20217;-81
2020/12/03 11:09:06;;;;;;;32.43;5.73;;;20.60;91.50;;;;;;5074507;28;20244;-80
2020/12/03 11:11:41;;;;;;;38.17;5.97;;;20.60;91.40;;;;;;5074275;28;20171;-80
2020/12/03 11:14:15;;;;;;;33.87;5.57;;;20.60;91.40;;;;;;5074228;28;20174;-81
2020/12/03 11:16:48;;;;;;;31.53;5.10;;;20.60;91.40;;;;;;5073621;28;20171;-80
2020/12/03 11:19:18;;;;;;;39.93;6.00;;;20.70;91.40;;;;;;5073524;28;20589;-81
2020/12/03 11:22:13;;;;;;;38.17;6.07;;;20.70;91.40;;;;;;5073673;28;20233;-83
2020/12/03 11:25:07;;;;;;;35.33;5.20;;;20.60;91.30;;;;;;5074087;28;20284;-79
2020/12/03 11:27:37;;;;;;;34.07;5.37;;;20.70;91.30;;;;;;5068374;28;20215;-81
2020/12/03 11:30:23;;;;;;;29.53;4.90;;;20.60;91.40;;;;;;5073219;28;20179;-82
2020/12/03 11:32:56;;;;;;;33.43;5.20;;;20.60;91.80;;;;;;5073941;28;20183;-81
2020/12/03 11:35:36;;;;;;;34.00;6.60;;;20.70;91.50;;;;;;5073918;28;20167;-82
2020/12/03 11:38:06;;;;;;;38.33;6.97;;;20.60;91.40;;;;;;5073891;28;20191;-80
2020/12/03 11:50:43;;;;;;;37.00;12.07;;;20.60;91.50;;;;;;5073624;28;20253;-82
2020/12/03 11:53:10;;;;;;;33.47;11.67;;;20.70;91.60;;;;;;5073996;28;20816;-81
2020/12/03 11:55:39;;;;;;;39.37;12.83;;;20.70;91.40;;;;;;5073407;28;20510;-80
2020/12/03 11:58:08;;;;;;;36.23;11.77;;;20.70;91.40;;;;;;5053953;28;20216;-80
2020/12/03 12:00:36;;;;;;;34.57;11.20;;;20.80;91.40;;;;;;5057224;28;20172;-79
2020/12/03 12:03:07;;;;;;;39.50;11.63;;;20.70;91.30;;;;;;5073394;28;20259;-80
2020/12/03 12:13:25;;;;;;;49.43;11.20;;;20.60;91.50;;;;;;5072889;28;20183;-79
2020/12/03 12:15:53;;;;;;;30.57;10.30;;;20.60;91.60;;;;;;5072823;28;20183;-79
2020/12/03 12:18:23;;;;;;;29.60;11.10;;;20.60;91.70;;;;;;5071914;28;20186;-80
2020/12/03 12:20:51;;;;;;;38.67;11.47;;;20.60;91.70;;;;;;5072381;28;20274;-79
2020/12/03 12:23:18;;;;;;;33.80;10.87;;;20.60;91.70;;;;;;5072827;28;20207;-78
2020/12/03 12:25:46;;;;;;;30.07;11.17;;;20.60;91.70;;;;;;5071533;28;20241;-78
2020/12/03 12:28:14;;;;;;;36.43;12.40;;;20.70;91.70;;;;;;5071551;28;20301;-79
2020/12/03 12:30:41;;;;;;;37.57;11.93;;;20.60;91.60;;;;;;5069351;28;20214;-79
2020/12/03 12:33:09;;;;;;;36.40;13.07;;;20.60;91.50;;;;;;5070861;28;20214;-78
2020/12/03 12:35:36;;;;;;;33.63;12.30;;;20.60;91.60;;;;;;5071683;28;20246;-79
2020/12/03 12:38:04;;;;;;;37.73;12.77;;;20.60;91.60;;;;;;5071800;28;20198;-78
2020/12/03 12:40:31;;;;;;;29.37;12.07;;;20.60;91.70;;;;;;5072446;28;20209;-79
2020/12/03 12:42:58;;;;;;;42.97;13.63;;;20.60;91.60;;;;;;5072897;28;20203;-78
2020/12/03 12:45:26;;;;;;;38.57;13.40;;;20.60;91.70;;;;;;5072980;28;20175;-81
2020/12/03 12:47:54;;;;;;;30.27;12.10;;;20.50;91.70;;;;;;5072845;28;20223;-80
2020/12/03 12:50:22;;;;;;;39.53;13.70;;;20.60;91.80;;;;;;5071796;28;20171;-80
2020/12/03 12:52:49;;;;;;;42.97;13.23;;;20.50;91.80;;;;;;5072958;28;20213;-79
2020/12/03 12:55:17;;;;;;;36.07;14.00;;;20.50;91.80;;;;;;5065427;28;20222;-80
2020/12/03 12:57:44;;;;;;;35.07;13.30;;;20.50;91.80;;;;;;5085007;28;20192;-78
2020/12/03 13:00:11;;;;;;;39.80;13.47;;;20.60;91.80;;;;;;5071648;28;20181;-78
2020/12/03 13:02:39;;;;;;;30.53;13.27;;;20.60;91.70;;;;;;5066159;28;20192;-79
2020/12/03 13:05:06;;;;;;;31.07;12.23;;;20.60;91.70;;;;;;5067347;28;20187;-79
2020/12/03 13:07:33;;;;;;;40.10;14.30;;;20.60;91.70;;;;;;5074764;28;20210;-78
2020/12/03 13:10:04;;;;;;;36.97;13.67;;;20.60;91.70;;;;;;5076329;28;20637;-78
2020/12/03 13:12:31;;;;;;;29.67;14.30;;;20.60;91.70;;;;;;5076819;28;20205;-78
2020/12/03 13:14:58;;;;;;;35.03;14.90;;;20.50;91.80;;;;;;5076955;28;20184;-79
2020/12/03 13:17:26;;;;;;;41.03;14.73;;;20.50;91.80;;;;;;5076899;28;20183;-78
2020/12/03 13:19:53;;;;;;;30.93;13.70;;;20.50;91.80;;;;;;5058213;28;20183;-78
2020/12/03 13:22:21;;;;;;;33.90;14.17;;;20.50;91.90;;;;;;5076349;28;20183;-78
2020/12/03 13:24:48;;;;;;;36.93;13.97;;;20.50;91.90;;;;;;5076858;28;20585;-80
2020/12/03 13:27:15;;;;;;;37.90;14.77;;;20.50;91.90;;;;;;5075615;28;20215;-78
2020/12/03 13:29:43;;;;;;;31.00;12.87;;;20.50;91.90;;;;;;5076856;28;20732;-78